Time;durP1;ratioP1;P1;durP2;ratioP2;P2;SDS_P1;SDS_P2;PMS_P1;PMS_P2;Temp;Humidity;BMP_temperature;BMP_pressure;BME280_temperature;BME280_humidity;BME280_pressure;Samples;Min_cycle;Max_cycle;Signal;HPM_P1;HPM_P2
2023/02/19 00:01:32;;;;;;;;;;;;;;;-5.64;61.67;98504.41;4743819;30;19927;-86
2023/02/19 00:04:03;;;;;;;;;;;;;;;-5.76;60.30;98502.28;4729553;30;19934;-86
2023/02/19 00:06:35;;;;;;;;;;;;;;;-6.00;60.34;98497.22;4742120;30;19935;-84
2023/02/19 00:09:06;;;;;;;;;;;;;;;-5.92;61.73;98495.81;4743012;30;19933;-84
2023/02/19 00:11:39;;;;;;;;;;;;;;;-5.96;61.04;98499.03;4743334;30;19934;-83
2023/02/19 00:14:17;;;;;;;;;;;;;;;-6.07;61.06;98491.06;4730155;30;19927;-82
2023/02/19 00:16:46;;;;;;;;;;;;;;;-6.08;61.53;98489.34;4746494;30;19993;-83
2023/02/19 00:19:19;;;;;;;;;;;;;;;-5.95;62.08;98481.34;4746752;30;19966;-83
2023/02/19 00:21:51;;;;;;;;;;;;;;;-5.83;61.76;98482.59;4746310;30;19926;-83
2023/02/19 00:24:25;;;;;;;;;;;;;;;-5.75;61.51;98483.75;4745193;30;20403;-83
2023/02/19 00:26:58;;;;;;;;;;;;;;;-5.81;61.55;98478.44;4747031;30;19928;-84
2023/02/19 00:29:30;;;;;;;;;;;;;;;-5.87;60.77;98470.63;4762940;30;19926;-83
2023/02/19 00:31:59;;;;;;;;;;;;;;;-5.80;61.53;98480.19;4773330;30;19914;-84
2023/02/19 00:34:26;;;;;;;;;;;;;;;-5.83;61.48;98468.25;4747106;30;19925;-83
2023/02/19 00:37:03;;;;;;;;;;;;;;;-5.75;61.56;98481.22;4766103;30;19934;-84
2023/02/19 00:39:29;;;;;;;;;;;;;;;-5.82;61.79;98469.97;4747983;30;19926;-85
2023/02/19 00:42:04;;;;;;;;;;;;;;;-5.87;61.60;98471.50;4761544;30;20646;-85
2023/02/19 00:44:39;;;;;;;;;;;;;;;-6.03;60.65;98477.72;4747743;30;19934;-85
2023/02/19 00:47:17;;;;;;;;;;;;;;;-6.12;61.39;98472.31;4777249;30;19979;-88
2023/02/19 00:49:46;;;;;;;;;;;;;;;-6.24;61.63;98468.53;4747022;30;19926;-84
2023/02/19 00:52:28;;;;;;;;;;;;;;;-6.15;61.97;98469.66;4762660;30;20489;-84
2023/02/19 00:54:57;;;;;;;;;;;;;;;-6.01;62.12;98465.09;4762228;30;19937;-86
2023/02/19 00:57:42;;;;;;;;;;;;;;;-6.19;61.95;98466.16;4779177;30;19979;-84
2023/02/19 01:00:36;;;;;;;;;;;;;;;-6.26;61.45;98469.25;4758437;30;19964;-84
2023/02/19 01:03:21;;;;;;;;;;;;;;;;;;;;;
2023/02/19 01:05:51;;;;;;;;;;;;;;;-6.15;62.29;98457.88;4747480;30;19977;-83
2023/02/19 01:08:27;;;;;;;;;;;;;;;-6.07;61.98;98459.00;4745188;30;20350;-85
2023/02/19 01:11:03;;;;;;;;;;;;;;;-6.13;62.47;98452.84;4730858;30;19986;-85
2023/02/19 01:13:36;;;;;;;;;;;;;;;-6.17;61.65;98451.88;4731443;30;19956;-83
2023/02/19 01:16:23;;;;;;;;;;;;;;;-6.15;62.37;98437.63;4758805;30;19931;-84
2023/02/19 01:18:53;;;;;;;;;;;;;;;-6.26;62.10;98442.28;4760177;30;20485;-84
2023/02/19 01:21:21;;;;;;;;;;;;;;;-6.42;62.21;98430.72;4731015;30;19926;-83
2023/02/19 01:24:02;;;;;;;;;;;;;;;-6.28;62.97;98430.34;4759617;30;19927;-84
2023/02/19 01:26:32;;;;;;;;;;;;;;;-6.24;62.47;98438.16;4745532;30;20005;-83
2023/02/19 01:29:00;;;;;;;;;;;;;;;-6.15;63.21;98432.53;4730835;30;19963;-83
2023/02/19 01:31:33;;;;;;;;;;;;;;;-6.21;62.82;98434.84;4778814;30;20303;-81
2023/02/19 01:34:06;;;;;;;;;;;;;;;-6.23;62.89;98431.41;4779150;30;19956;-82
2023/02/19 01:36:44;;;;;;;;;;;;;;;-6.17;62.84;98429.09;4735351;30;19949;-82
2023/02/19 01:39:18;;;;;;;;;;;;;;;-6.25;62.84;98417.81;4761252;30;20323;-84
2023/02/19 01:42:34;;;;;;;;;;;;;;;;;;;;;
2023/02/19 01:46:56;;;;;;;;;;;;;;;-6.24;63.15;98412.81;4723577;30;19930;-84
2023/02/19 01:49:50;;;;;;;;;;;;;;;-6.21;62.68;98412.06;4743936;30;19926;-82
2023/02/19 01:52:26;;;;;;;;;;;;;;;-6.16;62.56;98418.16;4760217;30;19933;-82
2023/02/19 01:54:55;;;;;;;;;;;;;;;-6.28;62.75;98413.50;4744860;30;20007;-84
2023/02/19 01:57:38;;;;;;;;;;;;;;;-6.29;63.02;98403.34;4746075;30;19938;-84
2023/02/19 02:00:27;;;;;;;;;;;;;;;;;;;;;
2023/02/19 02:03:04;;;;;;;;;;;;;;;-6.46;63.00;98416.22;4735807;30;20425;-85
2023/02/19 02:06:00;;;;;;;;;;;;;;;-6.44;63.75;98417.16;4749614;30;19965;-82
2023/02/19 02:11:20;;;;;;;;;;;;;;;-6.30;63.53;98412.59;4744837;30;19930;-83
2023/02/19 02:13:51;;;;;;;;;;;;;;;-6.33;63.06;98406.56;4750214;30;20027;-83
2023/02/19 02:16:22;;;;;;;;;;;;;;;-6.38;63.05;98398.78;4765315;30;19934;-82
2023/02/19 02:19:14;;;;;;;;;;;;;;;-6.27;63.04;98401.69;4745423;30;20025;-84
2023/02/19 02:22:04;;;;;;;;;;;;;;;-6.28;63.40;98403.38;4730746;30;19926;-84
2023/02/19 02:24:57;;;;;;;;;;;;;;;-6.38;63.69;98407.25;4746933;30;19984;-83
2023/02/19 02:27:49;;;;;;;;;;;;;;;-6.32;63.90;98408.28;4730883;30;20033;-87
2023/02/19 02:30:25;;;;;;;;;;;;;;;-6.20;64.13;98393.53;4747893;30;19965;-82
2023/02/19 02:33:14;;;;;;;;;;;;;;;-6.15;63.94;98394.56;4764348;30;19926;-83
2023/02/19 02:36:05;;;;;;;;;;;;;;;-6.23;63.21;98398.47;4750730;30;19938;-84
2023/02/19 02:38:40;;;;;;;;;;;;;;;-6.21;63.93;98396.88;4746778;30;19927;-83
2023/02/19 02:41:12;;;;;;;;;;;;;;;-6.17;63.92;98391.09;4759276;30;19932;-84
2023/02/19 02:43:45;;;;;;;;;;;;;;;-6.18;63.09;98391.06;4743571;30;20033;-85
2023/02/19 02:46:31;;;;;;;;;;;;;;;-6.15;63.37;98389.50;4742576;30;19957;-82
2023/02/19 03:03:51;;;;;;;;;;;;;;;-5.88;63.90;98378.56;4682997;30;19981;-84
2023/02/19 03:09:29;;;;;;;;;;;;;;;-5.97;62.89;98380.75;4761020;30;19937;-83
2023/02/19 03:23:15;;;;;;;;;;;;;;;-5.82;63.67;98355.09;4710594;30;19972;-83
2023/02/19 03:29:44;;;;;;;;;;;;;;;-5.84;63.25;98357.56;4752451;30;19934;-82
2023/02/19 03:32:47;;;;;;;;;;;;;;;-6.10;62.16;98360.13;4749297;30;19996;-83
2023/02/19 03:39:25;;;;;;;;;;;;;;;-5.98;63.38;98348.63;4706873;30;19934;-81
2023/02/19 03:55:05;;;;;;;;;;;;;;;-6.02;63.72;98336.69;4784434;30;19985;-81
2023/02/19 03:58:06;;;;;;;;;;;;;;;-5.91;63.88;98330.31;4776067;30;19936;-81
2023/02/19 04:00:50;;;;;;;;;;;;;;;-5.89;64.01;98338.81;4781856;30;19952;-82
2023/02/19 04:03:33;;;;;;;;;;;;;;;-5.90;63.95;98337.09;4765235;30;19979;-81
2023/02/19 04:06:34;;;;;;;;;;;;;;;;;;;;;
2023/02/19 04:09:57;;;;;;;;;;;;;;;-6.13;63.88;98332.16;4732197;30;19930;-80
2023/02/19 04:12:44;;;;;;;;;;;;;;;-6.01;63.66;98325.75;4713127;30;19962;-81
2023/02/19 04:16:12;;;;;;;;;;;;;;;-5.87;63.99;98324.53;4706657;30;19982;-80
2023/02/19 04:19:53;;;;;;;;;;;;;;;;;;;;;
2023/02/19 04:22:57;;;;;;;;;;;;;;;-6.13;62.83;98326.22;4726346;30;19994;-80
2023/02/19 04:25:28;;;;;;;;;;;;;;;-6.17;63.38;98321.84;4725280;30;19930;-81
2023/02/19 04:28:10;;;;;;;;;;;;;;;-6.09;63.89;98328.03;4711925;30;19926;-81
2023/02/19 04:33:30;;;;;;;;;;;;;;;-6.21;63.82;98321.75;4727011;30;19958;-83
2023/02/19 04:35:56;;;;;;;;;;;;;;;-6.15;63.49;98333.78;4735904;30;19953;-82
2023/02/19 04:38:48;;;;;;;;;;;;;;;-6.12;64.00;98326.28;4724846;30;20423;-82
2023/02/19 04:42:17;;;;;;;;;;;;;;;-6.21;64.43;98325.94;4743761;30;20013;-84
2023/02/19 04:45:10;;;;;;;;;;;;;;;-5.97;64.20;98325.91;4735419;30;19962;-80
2023/02/19 04:47:41;;;;;;;;;;;;;;;-5.99;63.03;98325.00;4718816;30;19989;-83
2023/02/19 04:50:13;;;;;;;;;;;;;;;-6.19;63.37;98318.41;4746270;30;20343;-81
2023/02/19 04:52:44;;;;;;;;;;;;;;;-6.16;64.15;98321.91;4758240;29;19918;-82
2023/02/19 04:55:19;;;;;;;;;;;;;;;-6.18;64.04;98320.16;4760423;30;19969;-80
2023/02/19 04:57:48;;;;;;;;;;;;;;;-6.15;64.33;98316.03;4749534;30;20408;-80
2023/02/19 05:00:33;;;;;;;;;;;;;;;-5.99;64.02;98319.03;4733771;30;19984;-80
2023/02/19 05:03:09;;;;;;;;;;;;;;;-6.03;63.96;98319.78;4743356;30;19965;-81
2023/02/19 05:08:37;;;;;;;;;;;;;;;-6.28;64.37;98307.16;4735514;30;19930;-80
2023/02/19 05:11:11;;;;;;;;;;;;;;;-6.13;64.51;98304.28;4743437;30;20051;-80
2023/02/19 05:14:14;;;;;;;;;;;;;;;-5.97;64.35;98309.81;4729248;30;19994;-81
2023/02/19 05:17:08;;;;;;;;;;;;;;;-5.99;64.12;98307.25;4743880;30;19936;-80
2023/02/19 05:20:05;;;;;;;;;;;;;;;-6.05;64.07;98302.00;4733786;30;19932;-82
2023/02/19 05:30:17;;;;;;;;;;;;;;;-6.01;64.71;98296.25;4720210;30;19927;-81
2023/02/19 05:33:07;;;;;;;;;;;;;;;-5.95;63.56;98300.59;4722327;30;19990;-82
2023/02/19 05:36:17;;;;;;;;;;;;;;;-5.83;64.04;98288.31;4706349;30;19957;-83
2023/02/19 05:39:40;;;;;;;;;;;;;;;-5.79;64.33;98294.38;4711339;30;19986;-84
2023/02/19 05:46:18;;;;;;;;;;;;;;;-5.59;63.92;98284.84;4641329;31;19932;-81
2023/02/19 05:49:00;;;;;;;;;;;;;;;-5.59;63.97;98289.91;4644655;30;19932;-82
2023/02/19 05:52:10;;;;;;;;;;;;;;;-5.67;62.80;98286.31;4665880;30;19937;-83
2023/02/19 06:00:05;;;;;;;;;;;;;;;;;;;;;
2023/02/19 06:39:10;;;;;;;;;;;;;;;-4.92;64.32;98280.06;4782583;24;20044;-80
2023/02/19 06:45:45;;;;;;;;;;;;;;;-4.80;63.33;98268.56;4801097;30;19937;-83
2023/02/19 06:58:31;;;;;;;;;;;;;;;-4.71;63.37;98256.97;4809133;30;19983;-85
2023/02/19 07:05:17;;;;;;;;;;;;;;;-4.68;63.29;98251.13;4684892;30;20472;-83
2023/02/19 07:16:25;;;;;;;;;;;;;;;-4.44;62.23;98235.69;4712678;30;19981;-84
2023/02/19 07:23:26;;;;;;;;;;;;;;;-3.89;63.12;98242.94;4731303;30;19927;-85
2023/02/19 07:25:52;;;;;;;;;;;;;;;-3.85;62.88;98239.66;4707159;29;19960;-84
2023/02/19 07:29:18;;;;;;;;;;;;;;;-3.78;62.58;98243.19;4802519;30;19925;-82
2023/02/19 07:32:33;;;;;;;;;;;;;;;-3.87;62.17;98240.47;4819618;29;19919;-83
2023/02/19 07:52:00;;;;;;;;;;;;;;;-4.02;61.98;98224.00;4624320;31;20019;-85
2023/02/19 07:54:51;;;;;;;;;;;;;;;-4.28;60.60;98216.59;4613743;31;19929;-85
2023/02/19 07:58:37;;;;;;;;;;;;;;;;;;;;;
2023/02/19 08:05:09;;;;;;;;;;;;;;;-4.21;61.30;98206.59;4630058;31;19964;-83
2023/02/19 08:08:01;;;;;;;;;;;;;;;-3.90;62.39;98209.88;4742406;24;19938;-83
2023/02/19 08:17:31;;;;;;;;;;;;;;;;;;;;;
2023/02/19 08:25:09;;;;;;;;;;;;;;;-3.88;61.48;98210.78;4718172;30;19970;-84
2023/02/19 08:31:35;;;;;;;;;;;;;;;;;;;;;
2023/02/19 08:42:15;;;;;;;;;;;;;;;-3.35;61.49;98183.13;4716775;30;19927;-83
2023/02/19 08:44:57;;;;;;;;;;;;;;;-3.29;61.49;98189.16;4698241;30;19990;-85
2023/02/19 08:47:33;;;;;;;;;;;;;;;-3.22;60.40;98189.31;4710342;30;19927;-82
2023/02/19 08:50:36;;;;;;;;;;;;;;;-3.07;61.41;98178.59;4707678;30;19907;-83
2023/02/19 08:53:26;;;;;;;;;;;;;;;-2.90;60.96;98183.16;4699180;30;19927;-86
2023/02/19 08:55:54;;;;;;;;;;;;;;;-3.03;60.08;98180.38;4708050;30;19927;-85
2023/02/19 08:58:25;;;;;;;;;;;;;;;-2.82;61.11;98175.66;4686468;30;19907;-84
2023/02/19 09:01:37;;;;;;;;;;;;;;;-3.03;60.19;98185.47;4698012;30;19986;-83
2023/02/19 09:04:12;;;;;;;;;;;;;;;-3.15;60.47;98174.19;4689158;30;19919;-83
2023/02/19 09:11:17;;;;;;;;;;;;;;;-3.20;59.06;98167.31;4729454;30;20421;-85
2023/02/19 09:13:44;;;;;;;;;;;;;;;-3.23;60.33;98168.94;4740279;30;19941;-82
2023/02/19 09:16:10;;;;;;;;;;;;;;;-3.43;59.71;98164.31;4753534;30;19927;-86
2023/02/19 09:18:58;;;;;;;;;;;;;;;-3.38;60.97;98165.25;4730716;30;19933;-85
2023/02/19 09:22:41;;;;;;;;;;;;;;;;;;;;;
2023/02/19 09:25:17;;;;;;;;;;;;;;;-3.71;59.77;98163.72;4732495;30;19935;-84
2023/02/19 09:27:52;;;;;;;;;;;;;;;-3.48;60.42;98165.88;4713234;30;19941;-83
2023/02/19 09:30:35;;;;;;;;;;;;;;;-3.53;60.86;98150.50;4744422;30;19970;-83
2023/02/19 09:33:34;;;;;;;;;;;;;;;-3.31;61.15;98142.47;4754844;30;19949;-85
2023/02/19 09:36:19;;;;;;;;;;;;;;;-3.33;60.49;98143.31;4734409;30;19943;-83
2023/02/19 09:38:59;;;;;;;;;;;;;;;-3.19;60.93;98145.25;4717226;30;19930;-83
2023/02/19 09:41:48;;;;;;;;;;;;;;;-2.98;60.31;98154.16;4743360;30;20013;-82
2023/02/19 09:45:08;;;;;;;;;;;;;;;-3.08;59.23;98135.28;4707852;30;19977;-82
2023/02/19 09:47:37;;;;;;;;;;;;;;;-2.87;60.67;98139.94;4653317;30;19961;-80
2023/02/19 09:50:40;;;;;;;;;;;;;;;-3.06;59.53;98138.72;4702979;30;19931;-82
2023/02/19 09:54:27;;;;;;;;;;;;;;;-3.42;59.47;98102.41;4655679;30;19946;-82
2023/02/19 09:58:19;;;;;;;;;;;;;;;;;;;;;
2023/02/19 10:02:44;;;;;;;;;;;;;;;-2.95;60.44;98129.59;4567432;31;19949;-80
2023/02/19 10:06:07;;;;;;;;;;;;;;;-3.33;58.88;98125.50;4553944;31;19933;-80
2023/02/19 10:28:40;;;;;;;;;;;;;;;;;;;;;
2023/02/19 10:55:45;;;;;;;;;;;;;;;;;;;;;
2023/02/19 10:59:26;;;;;;;;;;;;;;;-2.42;60.76;98107.56;4702375;30;20031;-84
2023/02/19 11:02:26;;;;;;;;;;;;;;;-2.17;59.29;98100.31;4713969;30;19931;-80
2023/02/19 11:05:20;;;;;;;;;;;;;;;-2.30;60.06;98099.25;4748949;30;19944;-85
2023/02/19 11:08:00;;;;;;;;;;;;;;;-2.29;58.12;98103.53;4745657;30;19995;-85
2023/02/19 11:14:44;;;;;;;;;;;;;;;-1.90;59.47;98099.00;4687998;30;19933;-81
2023/02/19 11:17:32;;;;;;;;;;;;;;;-1.55;58.75;98094.34;4738737;30;19911;-84
2023/02/19 11:20:53;;;;;;;;;;;;;;;-1.18;58.41;98104.16;4735539;30;19950;-81
2023/02/19 11:28:15;;;;;;;;;;;;;;;-0.54;56.72;98087.72;4695703;30;19934;-80
2023/02/19 11:31:24;;;;;;;;;;;;;;;-0.85;57.65;98086.59;4693227;30;19919;-82
2023/02/19 11:34:31;;;;;;;;;;;;;;;;;;;;;
2023/02/19 11:41:13;;;;;;;;;;;;;;;-2.03;57.76;98085.22;4692510;30;19986;-81
2023/02/19 11:47:04;;;;;;;;;;;;;;;-2.36;58.34;98106.81;4709960;30;20024;-83
2023/02/19 11:50:14;;;;;;;;;;;;;;;;;;;;;
2023/02/19 11:52:57;;;;;;;;;;;;;;;-2.68;57.75;98074.91;4726895;30;19936;-83
2023/02/19 11:56:02;;;;;;;;;;;;;;;;;;;;;
2023/02/19 11:58:49;;;;;;;;;;;;;;;-2.82;58.21;98095.03;4760019;30;19994;-83
2023/02/19 12:01:21;;;;;;;;;;;;;;;-2.75;58.55;98085.81;4746939;30;19926;-83
2023/02/19 12:04:19;;;;;;;;;;;;;;;-2.73;57.54;98095.19;4748606;30;19932;-82
2023/02/19 12:09:50;;;;;;;;;;;;;;;-2.58;57.27;98081.84;3096246;27;20032;-81
2023/02/19 12:12:57;;;;;;;;;;;;;;;;;;;;;
2023/02/19 12:16:10;;;;;;;;;;;;;;;-2.53;57.59;98078.53;4783188;30;19937;-82
2023/02/19 12:19:20;;;;;;;;;;;;;;;-2.54;58.25;98070.03;4757320;30;19926;-83
2023/02/19 12:22:15;;;;;;;;;;;;;;;-2.42;57.40;98082.97;4782428;30;19969;-79
2023/02/19 12:25:22;;;;;;;;;;;;;;;-2.51;57.51;98067.50;4773150;30;19980;-81
2023/02/19 12:29:01;;;;;;;;;;;;;;;-2.67;56.39;98068.13;4773463;30;19925;-81
2023/02/19 12:32:16;;;;;;;;;;;;;;;;;;;;;
2023/02/19 12:35:30;;;;;;;;;;;;;;;;;;;;;
2023/02/19 12:38:23;;;;;;;;;;;;;;;-3.24;57.38;98079.00;4772013;30;19936;-80
2023/02/19 12:44:30;;;;;;;;;;;;;;;-3.61;57.65;98082.53;4746554;30;19929;-81
2023/02/19 12:47:09;;;;;;;;;;;;;;;-3.49;58.70;98082.78;4751148;30;19937;-80
2023/02/19 12:49:56;;;;;;;;;;;;;;;-3.30;58.26;98081.44;4756270;30;19970;-80
2023/02/19 12:52:33;;;;;;;;;;;;;;;-3.33;57.84;98084.78;4789758;30;19906;-79
2023/02/19 12:55:27;;;;;;;;;;;;;;;-3.28;58.56;98089.97;4755158;30;19926;-80
2023/02/19 12:57:54;;;;;;;;;;;;;;;-3.37;57.66;98094.88;4744520;30;19983;-80
2023/02/19 13:00:30;;;;;;;;;;;;;;;-3.33;58.61;98100.06;4783674;30;19929;-81
2023/02/19 13:03:19;;;;;;;;;;;;;;;-3.43;57.63;98088.00;4783072;30;19925;-81
2023/02/19 13:05:49;;;;;;;;;;;;;;;-3.39;58.88;98089.75;4761097;30;19997;-82
2023/02/19 13:08:34;;;;;;;;;;;;;;;-3.15;58.55;98100.38;4750089;30;19986;-85
2023/02/19 13:11:32;;;;;;;;;;;;;;;-3.26;57.31;98097.63;4767572;30;19933;-79
2023/02/19 13:14:03;;;;;;;;;;;;;;;-3.31;57.91;98091.59;4763022;30;19982;-80
2023/02/19 13:16:33;;;;;;;;;;;;;;;-3.34;57.95;98090.72;4737962;30;19926;-82
2023/02/19 13:19:13;;;;;;;;;;;;;;;-3.26;57.45;98087.47;4768113;30;19949;-78
2023/02/19 13:24:43;;;;;;;;;;;;;;;-3.41;58.07;98086.31;4775924;30;19926;-82
2023/02/19 13:27:34;;;;;;;;;;;;;;;-3.42;58.66;98094.78;4755125;30;19930;-80
2023/02/19 13:30:01;;;;;;;;;;;;;;;-3.65;58.23;98091.78;4783576;30;19925;-79
2023/02/19 13:32:33;;;;;;;;;;;;;;;-3.84;58.42;98083.78;4759191;30;19918;-81
2023/02/19 13:35:18;;;;;;;;;;;;;;;-3.82;58.03;98088.88;4755953;30;19926;-81
2023/02/19 13:37:45;;;;;;;;;;;;;;;-3.86;58.76;98084.59;4767091;30;20040;-83
2023/02/19 13:40:21;;;;;;;;;;;;;;;-3.74;58.43;98089.91;4778414;30;19933;-81
2023/02/19 13:42:53;;;;;;;;;;;;;;;-3.74;58.97;98089.03;4767986;30;19926;-82
2023/02/19 13:45:28;;;;;;;;;;;;;;;-3.87;58.48;98093.88;4767281;30;19930;-81
2023/02/19 13:47:58;;;;;;;;;;;;;;;-3.84;58.80;98090.53;4752468;30;19926;-81
2023/02/19 13:50:33;;;;;;;;;;;;;;;-3.70;58.56;98088.28;4751631;30;19926;-79
2023/02/19 13:52:59;;;;;;;;;;;;;;;-3.84;57.85;98091.41;4766012;30;19972;-78
2023/02/19 13:55:51;;;;;;;;;;;;;;;-4.06;57.93;98089.22;4761985;30;19937;-80
2023/02/19 13:58:32;;;;;;;;;;;;;;;-4.05;58.97;98088.41;4765140;30;20272;-78
2023/02/19 14:01:03;;;;;;;;;;;;;;;-4.01;59.52;98074.94;4788822;30;19946;-84
2023/02/19 14:03:41;;;;;;;;;;;;;;;-3.95;59.47;98080.13;4780879;30;19999;-79
2023/02/19 14:06:31;;;;;;;;;;;;;;;-4.21;58.89;98070.28;4773300;30;19913;-82
2023/02/19 14:09:31;;;;;;;;;;;;;;;-4.26;60.09;98049.84;4783611;29;19978;-78
2023/02/19 14:12:21;;;;;;;;;;;;;;;-4.29;58.79;98074.31;4756883;30;19937;-81
2023/02/19 14:15:27;;;;;;;;;;;;;;;-4.52;59.28;98066.19;4752255;30;19930;-78
2023/02/19 14:17:55;;;;;;;;;;;;;;;-4.45;60.21;98068.03;4757702;30;19933;-78
2023/02/19 14:21:08;;;;;;;;;;;;;;;-4.43;60.00;98058.75;4767701;30;19914;-78
2023/02/19 14:23:57;;;;;;;;;;;;;;;-4.34;59.86;98040.31;4768227;30;19934;-82
2023/02/19 14:26:28;;;;;;;;;;;;;;;-4.41;58.99;98049.50;4759691;30;19930;-85
2023/02/19 14:28:59;;;;;;;;;;;;;;;-4.45;60.29;98055.31;4766876;30;19925;-82
2023/02/19 14:31:53;;;;;;;;;;;;;;;-4.38;60.71;98045.34;4766947;30;19944;-82
2023/02/19 14:34:25;;;;;;;;;;;;;;;-4.29;60.44;98041.28;4769597;30;19925;-81
2023/02/19 14:37:20;;;;;;;;;;;;;;;-4.42;60.18;98043.56;4786578;30;19975;-81
2023/02/19 14:44:15;;;;;;;;;;;;;;;-4.47;59.76;98051.88;4725617;30;19911;-81
2023/02/19 14:51:06;;;;;;;;;;;;;;;-4.42;60.62;98052.84;4668975;30;20004;-82
2023/02/19 14:53:47;;;;;;;;;;;;;;;-4.43;60.84;98048.59;4662850;30;19953;-80
2023/02/19 14:56:32;;;;;;;;;;;;;;;;;;;;;
2023/02/19 14:59:11;;;;;;;;;;;;;;;-4.49;61.25;98041.72;4698276;30;19939;-78
2023/02/19 15:01:50;;;;;;;;;;;;;;;-4.51;61.62;98042.47;4666743;30;20062;-79
2023/02/19 15:04:38;;;;;;;;;;;;;;;-4.43;60.82;98041.84;4644555;30;20003;-79
2023/02/19 15:07:18;;;;;;;;;;;;;;;-4.40;61.25;98043.59;4656166;30;19957;-84
2023/02/19 15:09:57;;;;;;;;;;;;;;;-4.45;61.55;98048.56;4665054;30;19971;-80
2023/02/19 15:13:03;;;;;;;;;;;;;;;-4.49;61.42;98040.84;4684684;30;19993;-82
2023/02/19 15:15:45;;;;;;;;;;;;;;;-4.51;60.82;98040.81;4677407;30;19927;-80
2023/02/19 15:24:35;;;;;;;;;;;;;;;-4.56;60.96;98045.78;4663775;30;19935;-81
2023/02/19 15:27:00;;;;;;;;;;;;;;;-4.78;61.69;98024.09;4740095;30;19953;-81
2023/02/19 15:29:45;;;;;;;;;;;;;;;-4.81;61.90;98046.03;4751338;30;19926;-81
2023/02/19 15:32:45;;;;;;;;;;;;;;;-4.66;62.32;98043.84;4752761;30;20021;-83
2023/02/19 15:35:26;;;;;;;;;;;;;;;-4.50;62.95;98034.91;4769394;30;20024;-80
2023/02/19 15:38:20;;;;;;;;;;;;;;;-4.43;62.48;98026.63;4779644;30;19933;-82
2023/02/19 15:40:57;;;;;;;;;;;;;;;-4.31;62.25;98031.13;4752452;30;19926;-82
2023/02/19 15:43:52;;;;;;;;;;;;;;;-4.44;61.70;98024.91;4750003;30;19933;-81
2023/02/19 15:46:20;;;;;;;;;;;;;;;-4.60;61.24;98025.34;4765048;30;20297;-82
2023/02/19 15:49:15;;;;;;;;;;;;;;;-4.76;62.00;98027.53;4765581;30;19985;-81
2023/02/19 15:52:13;;;;;;;;;;;;;;;-4.78;62.56;98029.19;4697736;30;19935;-81
2023/02/19 15:55:08;;;;;;;;;;;;;;;;;;;;;
2023/02/19 15:58:07;;;;;;;;;;;;;;;;;;;;;
2023/02/19 16:01:07;;;;;;;;;;;;;;;-4.55;62.29;98014.50;4786512;30;19925;-82
2023/02/19 16:14:27;;;;;;;;;;;;;;;-4.78;62.38;98001.25;3122189;27;21060;-82
2023/02/19 16:17:52;;;;;;;;;;;;;;;-4.85;62.24;98010.41;4797483;29;19926;-85
2023/02/19 16:21:16;;;;;;;;;;;;;;;-4.85;63.35;97997.72;4751004;30;19927;-84
2023/02/19 16:23:55;;;;;;;;;;;;;;;-4.97;62.54;98007.59;4712037;30;19987;-83
2023/02/19 16:29:56;;;;;;;;;;;;;;;-4.98;62.81;98003.34;4698765;30;19970;-84
2023/02/19 16:32:28;;;;;;;;;;;;;;;-4.90;62.87;98008.59;4762638;30;19956;-86
2023/02/19 16:35:00;;;;;;;;;;;;;;;-4.87;63.34;97994.28;4813212;29;19925;-84
2023/02/19 16:37:43;;;;;;;;;;;;;;;-4.84;63.21;98012.13;4766861;30;19932;-84
2023/02/19 16:40:20;;;;;;;;;;;;;;;-4.84;63.36;98006.19;4802369;30;19913;-84
2023/02/19 16:42:50;;;;;;;;;;;;;;;-4.91;63.38;98000.09;4801098;30;19925;-83
2023/02/19 16:45:24;;;;;;;;;;;;;;;-4.88;63.71;98005.25;4802800;30;19929;-83
2023/02/19 16:47:56;;;;;;;;;;;;;;;-4.67;64.00;97988.81;4818186;29;19925;-82
2023/02/19 16:50:25;;;;;;;;;;;;;;;-4.54;63.90;97984.88;4802948;30;19932;-84
2023/02/19 16:52:57;;;;;;;;;;;;;;;-4.51;63.43;97986.63;4806236;29;19926;-85
2023/02/19 16:55:28;;;;;;;;;;;;;;;-4.62;63.55;97983.84;4803348;29;19955;-84
2023/02/19 16:58:26;;;;;;;;;;;;;;;-4.66;63.47;97985.47;4806090;29;19958;-88
2023/02/19 17:15:19;;;;;;;;;;;;;;;-4.99;63.58;97988.94;4800266;24;20056;-85
2023/02/19 17:18:21;;;;;;;;;;;;;;;-4.80;64.13;97984.28;4781135;30;20196;-86
2023/02/19 17:21:34;;;;;;;;;;;;;;;-4.87;62.95;97986.69;4790618;30;19925;-88
2023/02/19 17:25:05;;;;;;;;;;;;;;;-4.72;63.80;97985.31;4782321;29;19929;-84
2023/02/19 17:28:00;;;;;;;;;;;;;;;-4.60;63.95;97980.53;4800003;29;19929;-83
2023/02/19 17:46:50;;;;;;;;;;;;;;;-4.43;64.51;97959.72;4725622;30;19958;-87
2023/02/19 18:03:32;;;;;;;;;;;;;;;;;;;;;
2023/02/19 18:06:47;;;;;;;;;;;;;;;-4.76;63.95;97963.25;4781950;30;21559;-84
2023/02/19 18:10:01;;;;;;;;;;;;;;;-4.62;65.06;97956.78;4731914;30;19964;-86
2023/02/19 18:21:32;;;;;;;;;;;;;;;-4.69;64.79;97947.31;4704846;30;20001;-85
2023/02/19 18:27:30;;;;;;;;;;;;;;;-4.39;63.66;97949.66;4778294;30;20485;-87
2023/02/19 18:30:52;;;;;;;;;;;;;;;-4.48;64.10;97938.44;4758865;30;20417;-85
2023/02/19 18:34:05;;;;;;;;;;;;;;;-4.40;64.04;97947.09;4720885;30;19934;-83
2023/02/19 18:41:29;;;;;;;;;;;;;;;-4.44;63.67;97942.75;4742652;30;19937;-85
2023/02/19 18:44:32;;;;;;;;;;;;;;;-4.47;64.35;97937.63;4748357;30;20000;-84
2023/02/19 18:47:10;;;;;;;;;;;;;;;-4.27;63.94;97938.03;4754476;30;19930;-82
2023/02/19 19:01:51;;;;;;;;;;;;;;;-4.71;63.23;97919.38;4755045;30;19910;-82
2023/02/19 19:05:02;;;;;;;;;;;;;;;-4.61;64.23;97933.09;4723394;30;19927;-85
2023/02/19 19:08:14;;;;;;;;;;;;;;;-4.59;63.85;97926.38;5166121;24;20021;-82
2023/02/19 19:11:06;;;;;;;;;;;;;;;-4.49;64.42;97927.44;4778725;30;20336;-84
2023/02/19 19:20:17;;;;;;;;;;;;;;;-4.58;64.01;97922.16;4897405;24;19934;-85
2023/02/19 19:27:18;;;;;;;;;;;;;;;-4.31;64.55;97921.03;4745199;30;19957;-85
2023/02/19 19:29:46;;;;;;;;;;;;;;;-4.18;64.14;97922.13;4708105;30;19985;-86
2023/02/19 19:32:28;;;;;;;;;;;;;;;-4.18;63.77;97917.88;4700487;30;19934;-86
2023/02/19 19:35:12;;;;;;;;;;;;;;;-4.02;65.04;97913.97;4759416;30;20092;-88
2023/02/19 19:38:30;;;;;;;;;;;;;;;-4.06;64.35;97908.81;4713063;30;19927;-87
2023/02/19 19:41:44;;;;;;;;;;;;;;;-4.15;64.18;97917.09;4692210;30;19911;-88
2023/02/19 19:44:56;;;;;;;;;;;;;;;-3.90;64.56;97920.13;4697059;30;19974;-85
2023/02/19 19:47:38;;;;;;;;;;;;;;;-4.19;64.15;97923.78;4691941;30;19925;-86
2023/02/19 19:50:08;;;;;;;;;;;;;;;-4.43;63.66;97921.63;4704676;30;19935;-85
2023/02/19 19:52:46;;;;;;;;;;;;;;;-4.42;64.29;97924.22;4717936;30;19967;-87
2023/02/19 19:55:53;;;;;;;;;;;;;;;-4.46;64.05;97919.00;4684465;30;19960;-86
2023/02/19 19:58:40;;;;;;;;;;;;;;;-4.60;63.31;97914.50;4704581;30;20349;-86
2023/02/19 20:01:25;;;;;;;;;;;;;;;-4.63;64.64;97916.97;4717134;30;20060;-86
2023/02/19 20:10:59;;;;;;;;;;;;;;;-4.44;65.14;97913.16;4842453;24;19961;-85
2023/02/19 20:17:46;;;;;;;;;;;;;;;-3.79;65.25;97914.41;4739704;30;20001;-84
2023/02/19 20:24:08;;;;;;;;;;;;;;;-4.18;63.99;97906.88;4750594;30;19929;-83
2023/02/19 20:33:53;;;;;;;;;;;;;;;;;;;;;
2023/02/19 20:36:50;;;;;;;;;;;;;;;-3.86;63.58;97909.19;4770322;30;20001;-83
2023/02/19 20:39:50;;;;;;;;;;;;;;;-4.08;64.96;97906.22;4765890;30;19925;-83
2023/02/19 20:42:44;;;;;;;;;;;;;;;-3.98;65.01;97908.13;4757583;30;19941;-83
2023/02/19 20:45:59;;;;;;;;;;;;;;;;;;;;;
2023/02/19 20:48:56;;;;;;;;;;;;;;;-4.09;64.61;97907.06;4729702;30;19910;-84
2023/02/19 20:51:28;;;;;;;;;;;;;;;-3.98;65.38;97905.56;4757815;30;19925;-84
2023/02/19 20:54:13;;;;;;;;;;;;;;;-4.01;64.51;97907.22;4777007;30;19926;-84
2023/02/19 20:56:43;;;;;;;;;;;;;;;-4.23;64.27;97904.25;4765124;30;20048;-83
2023/02/19 20:59:09;;;;;;;;;;;;;;;-4.27;64.80;97908.41;4778427;30;19927;-82
2023/02/19 21:01:44;;;;;;;;;;;;;;;-4.29;65.03;97906.66;4763506;30;19933;-82
2023/02/19 21:04:17;;;;;;;;;;;;;;;-4.35;64.67;97909.06;4763617;30;19941;-81
2023/02/19 21:06:45;;;;;;;;;;;;;;;-4.41;65.27;97905.59;4774339;30;19946;-82
2023/02/19 21:09:17;;;;;;;;;;;;;;;-4.25;64.69;97908.44;4768017;30;19930;-84
2023/02/19 21:12:10;;;;;;;;;;;;;;;-4.32;65.53;97899.84;4735245;30;20459;-82
2023/02/19 21:14:41;;;;;;;;;;;;;;;-4.11;65.79;97903.66;4753048;30;19922;-86
2023/02/19 21:21:33;;;;;;;;;;;;;;;-3.78;65.83;97903.41;4766077;30;20439;-83
2023/02/19 21:24:24;;;;;;;;;;;;;;;;;;;;;
2023/02/19 21:27:15;;;;;;;;;;;;;;;-3.75;64.87;97906.84;4752433;30;19930;-85
2023/02/19 21:30:11;;;;;;;;;;;;;;;-3.98;64.31;97899.66;4751190;30;20194;-84
2023/02/19 21:33:25;;;;;;;;;;;;;;;-4.05;64.58;97908.81;4775101;30;19994;-82
2023/02/19 21:36:01;;;;;;;;;;;;;;;;;;;;;
2023/02/19 21:47:28;;;;;;;;;;;;;;;-3.86;65.65;97897.31;4753349;30;19915;-83
2023/02/19 21:50:22;;;;;;;;;;;;;;;-3.74;65.86;97900.91;4750143;30;19926;-83
2023/02/19 21:52:50;;;;;;;;;;;;;;;-3.87;64.43;97898.16;4740127;30;20000;-83